Time;durP1;ratioP1;P1;durP2;ratioP2;P2;SDS_P1;SDS_P2;PMS_P1;PMS_P2;Temp;Humidity;BMP_temperature;BMP_pressure;BME280_temperature;BME280_humidity;BME280_pressure;Samples;Min_cycle;Max_cycle;Signal;HPM_P1;HPM_P2
2023/04/11 00:08:02;;;;;;;10.13;5.80;;;2.70;99.90;;;;;;20748431;28;20037;-49
2023/04/11 00:18:05;;;;;;;8.52;6.05;;;2.80;99.90;;;;;;20747659;28;20050;-49
2023/04/11 00:28:08;;;;;;;7.50;5.00;;;2.50;99.90;;;;;;20747082;28;20049;-54
2023/04/11 00:38:10;;;;;;;11.77;6.57;;;2.40;99.90;;;;;;20736720;28;20025;-48
2023/04/11 00:48:12;;;;;;;10.43;6.72;;;2.60;99.90;;;;;;20745846;28;20045;-48
2023/04/11 00:58:15;;;;;;;7.95;5.32;;;2.90;99.90;;;;;;20743506;28;20501;-49
2023/04/11 01:08:19;;;;;;;7.85;5.15;;;3.00;99.90;;;;;;20743711;28;20022;-50
2023/04/11 01:18:21;;;;;;;8.65;5.57;;;3.20;99.90;;;;;;20742950;28;20057;-48
2023/04/11 01:28:23;;;;;;;9.07;6.00;;;3.30;99.90;;;;;;20742531;28;20033;-49
2023/04/11 01:38:25;;;;;;;8.02;5.45;;;3.40;99.90;;;;;;20739590;28;20026;-52
2023/04/11 01:48:27;;;;;;;7.95;5.50;;;3.60;99.90;;;;;;20740834;28;20038;-51
2023/04/11 01:58:29;;;;;;;9.02;5.78;;;3.60;99.90;;;;;;20740172;28;20057;-49
2023/04/11 02:08:30;;;;;;;7.68;5.65;;;3.80;99.90;;;;;;20739605;28;20037;-51
2023/04/11 02:18:32;;;;;;;9.88;6.35;;;3.90;99.90;;;;;;20739045;28;20053;-50
2023/04/11 02:28:35;;;;;;;9.70;6.30;;;3.80;99.90;;;;;;20737140;28;20049;-48
2023/04/11 02:38:37;;;;;;;8.52;6.07;;;3.80;99.90;;;;;;20738154;28;20132;-51
2023/04/11 02:48:38;;;;;;;10.35;5.90;;;3.70;99.90;;;;;;20752293;28;20033;-52
2023/04/11 02:58:40;;;;;;;9.05;6.00;;;3.60;99.90;;;;;;20736049;28;20042;-49
2023/04/11 03:08:42;;;;;;;9.40;6.20;;;3.50;99.90;;;;;;20718516;28;20052;-48
2023/04/11 03:18:44;;;;;;;8.55;5.78;;;3.70;99.90;;;;;;20750672;28;20050;-49
2023/04/11 03:28:47;;;;;;;11.25;7.00;;;3.60;99.90;;;;;;20750932;28;20120;-50
2023/04/11 03:38:53;;;;;;;10.35;6.53;;;3.40;99.90;;;;;;20750279;28;20104;-50
2023/04/11 03:48:54;;;;;;;9.63;6.53;;;3.10;99.90;;;;;;20749359;28;20034;-59
2023/04/11 03:58:57;;;;;;;12.73;6.05;;;2.90;99.90;;;;;;20746433;28;20030;-51
2023/04/11 04:09:03;;;;;;;8.73;5.65;;;3.30;99.90;;;;;;20747634;28;20108;-51
2023/04/11 04:19:17;;;;;;;6.95;3.95;;;3.30;99.90;;;;;;20745954;28;20099;-49
2023/04/11 04:29:21;;;;;;;6.45;3.50;;;3.00;99.90;;;;;;20745196;28;20502;-52
2023/04/11 04:39:28;;;;;;;5.88;3.80;;;3.00;99.90;;;;;;20744276;28;20411;-48
2023/04/11 04:49:30;;;;;;;13.73;6.50;;;2.80;99.90;;;;;;20743885;28;20033;-50
2023/04/11 04:59:32;;;;;;;7.22;4.75;;;3.30;99.90;;;;;;20743384;28;20042;-50
2023/04/11 05:09:43;;;;;;;5.73;3.07;;;3.30;99.90;;;;;;20741333;28;20042;-48
2023/04/11 05:19:50;;;;;;;7.20;4.22;;;3.10;99.90;;;;;;20741592;28;20115;-49
2023/04/11 05:29:53;;;;;;;6.90;4.50;;;3.10;99.90;;;;;;20740584;28;20092;-51
2023/04/11 05:39:55;;;;;;;8.52;5.10;;;3.30;99.90;;;;;;20739904;28;20120;-50
2023/04/11 05:49:57;;;;;;;7.68;4.85;;;3.60;99.90;;;;;;20740726;28;20506;-47
2023/04/11 06:00:00;;;;;;;9.60;5.57;;;3.90;99.90;;;;;;20738506;28;20100;-60
2023/04/11 06:10:02;;;;;;;10.25;6.00;;;4.00;99.90;;;;;;20741657;28;20049;-49
2023/04/11 06:20:06;;;;;;;9.13;5.53;;;4.50;99.90;;;;;;20738416;28;20084;-51
2023/04/11 06:30:08;;;;;;;8.85;5.78;;;5.10;99.90;;;;;;20739655;28;20042;-48
2023/04/11 06:40:11;;;;;;;8.00;5.20;;;5.40;99.90;;;;;;20736054;28;20025;-60
2023/04/11 06:50:13;;;;;;;9.25;5.55;;;6.50;99.90;;;;;;20739748;28;20034;-50
2023/04/11 07:00:15;;;;;;;9.00;5.55;;;7.20;99.90;;;;;;20737353;28;20045;-61
2023/04/11 07:10:16;;;;;;;9.75;6.10;;;7.90;99.90;;;;;;20736935;28;20042;-51
2023/04/11 07:20:18;;;;;;;8.57;6.35;;;8.40;99.90;;;;;;20734763;28;20045;-61
2023/04/11 07:30:20;;;;;;;8.30;5.80;;;8.40;99.90;;;;;;20731238;28;20129;-49
2023/04/11 07:40:22;;;;;;;8.18;5.75;;;9.00;99.90;;;;;;20747138;28;20026;-49
2023/04/11 07:50:23;;;;;;;7.70;6.00;;;9.80;99.90;;;;;;20749425;28;20045;-51
2023/04/11 08:00:27;;;;;;;10.38;6.72;;;10.30;99.90;;;;;;20749057;28;20484;-52
2023/04/11 08:10:29;;;;;;;9.30;6.35;;;10.30;99.90;;;;;;20747992;28;20479;-51
2023/04/11 08:20:30;;;;;;;10.25;7.13;;;11.30;99.90;;;;;;20746821;28;20042;-51
2023/04/11 08:30:32;;;;;;;8.80;6.40;;;11.60;99.90;;;;;;20744896;28;20042;-47
2023/04/11 08:40:35;;;;;;;9.45;7.10;;;11.80;99.90;;;;;;20745586;28;20060;-61
2023/04/11 08:50:39;;;;;;;8.77;6.60;;;12.10;99.90;;;;;;20745331;28;20080;-51
2023/04/11 09:00:41;;;;;;;10.30;7.35;;;12.60;99.90;;;;;;20744500;28;20088;-48
2023/04/11 09:10:44;;;;;;;9.73;7.07;;;13.10;99.90;;;;;;20743660;28;20096;-48
2023/04/11 09:20:59;;;;;;;10.20;7.75;;;13.20;99.80;;;;;;20742691;28;20046;-49
2023/04/11 09:31:01;;;;;;;10.80;8.25;;;13.10;99.90;;;;;;20741906;28;20802;-48
2023/04/11 09:41:04;;;;;;;10.60;8.05;;;13.80;98.20;;;;;;20741411;28;20541;-55
2023/04/11 09:51:06;;;;;;;12.07;9.30;;;14.40;98.80;;;;;;20740098;28;20424;-50
2023/04/11 10:01:09;;;;;;;11.90;9.30;;;14.90;96.80;;;;;;20739963;28;20033;-61
2023/04/11 10:11:13;;;;;;;13.05;9.52;;;13.70;97.90;;;;;;20739081;28;20037;-61
2023/04/11 10:21:26;;;;;;;13.20;10.10;;;13.90;98.60;;;;;;20738904;28;20038;-61
2023/04/11 10:31:28;;;;;;;13.63;10.13;;;14.70;98.20;;;;;;20738152;28;20037;-47
2023/04/11 10:41:32;;;;;;;13.50;9.93;;;14.60;98.10;;;;;;20738323;28;20083;-61
2023/04/11 10:51:34;;;;;;;21.85;11.40;;;14.60;97.60;;;;;;20738286;28;20451;-61
2023/04/11 11:01:36;;;;;;;17.27;11.88;;;14.40;97.40;;;;;;20737556;28;20042;-64
2023/04/11 11:11:38;;;;;;;16.83;11.63;;;14.50;97.30;;;;;;20753235;28;20033;-61
2023/04/11 11:21:39;;;;;;;17.27;12.32;;;14.50;97.90;;;;;;20751938;28;20381;-61
2023/04/11 11:31:44;;;;;;;17.00;12.18;;;14.50;97.50;;;;;;20751361;28;20037;-61
2023/04/11 11:41:46;;;;;;;19.73;13.15;;;14.40;97.60;;;;;;20750626;28;20541;-61
2023/04/11 11:51:48;;;;;;;20.20;13.10;;;14.30;97.10;;;;;;20749601;28;20038;-61
2023/04/11 12:01:50;;;;;;;18.13;12.73;;;14.50;97.90;;;;;;20746455;28;20034;-61
2023/04/11 12:11:53;;;;;;;19.13;13.02;;;14.90;96.90;;;;;;20747812;28;20561;-61
2023/04/11 12:21:55;;;;;;;19.10;12.77;;;14.70;96.20;;;;;;20746826;28;20038;-62
2023/04/11 12:31:56;;;;;;;18.42;12.68;;;14.80;95.80;;;;;;20746648;28;20057;-63
2023/04/11 12:41:58;;;;;;;19.65;12.90;;;14.60;95.20;;;;;;20745785;28;20065;-50
2023/04/11 12:52:00;;;;;;;16.92;12.38;;;15.00;97.00;;;;;;20745363;28;20034;-65
2023/04/11 13:02:01;;;;;;;16.92;12.18;;;15.00;95.80;;;;;;20743228;28;20034;-66
2023/04/11 13:12:03;;;;;;;18.95;12.05;;;15.10;94.00;;;;;;20740974;28;20471;-66
2023/04/11 13:22:05;;;;;;;17.27;12.88;;;15.20;95.40;;;;;;20743216;28;20104;-65
2023/04/11 13:32:07;;;;;;;19.30;13.35;;;15.00;96.10;;;;;;20739818;28;20364;-65
2023/04/11 13:42:09;;;;;;;18.77;12.77;;;14.80;95.80;;;;;;20740967;28;20399;-64
2023/04/11 13:52:11;;;;;;;17.15;12.98;;;14.40;96.20;;;;;;20740711;28;20030;-66
2023/04/11 14:02:12;;;;;;;17.13;12.02;;;14.50;96.70;;;;;;20738028;28;20419;-51
2023/04/11 14:12:15;;;;;;;16.95;13.23;;;14.40;97.20;;;;;;20739990;28;20455;-66
2023/04/11 14:22:17;;;;;;;17.35;12.85;;;14.30;97.20;;;;;;20739265;28;20033;-65
2023/04/11 14:32:19;;;;;;;16.33;12.75;;;14.00;97.20;;;;;;20738247;28;20383;-63
2023/04/11 14:42:20;;;;;;;14.30;12.45;;;13.70;98.30;;;;;;20748679;28;20030;-63
2023/04/11 14:52:22;;;;;;;17.92;12.80;;;13.90;99.80;;;;;;20754679;28;20038;-64
2023/04/11 15:02:24;;;;;;;15.20;11.73;;;13.90;99.30;;;;;;20753462;28;20030;-65
2023/04/11 15:12:25;;;;;;;15.48;12.32;;;13.30;99.90;;;;;;20752660;28;20487;-67
2023/04/11 15:22:27;;;;;;;14.35;11.35;;;12.90;99.90;;;;;;20752183;28;20045;-57
2023/04/11 15:32:29;;;;;;;14.27;11.48;;;12.30;99.90;;;;;;20750021;28;20057;-56
2023/04/11 15:42:33;;;;;;;15.68;11.48;;;12.00;99.90;;;;;;20750826;28;20034;-56
2023/04/11 15:52:35;;;;;;;14.45;11.35;;;11.60;99.90;;;;;;20749522;28;20034;-56
2023/04/11 16:02:36;;;;;;;14.82;11.07;;;11.50;99.90;;;;;;20746259;28;20104;-57
2023/04/11 16:12:38;;;;;;;16.63;13.27;;;11.60;99.90;;;;;;20747541;28;20494;-55
2023/04/11 16:22:40;;;;;;;17.00;12.80;;;11.20;99.90;;;;;;20747439;28;20364;-63
2023/04/11 16:32:41;;;;;;;16.60;13.60;;;10.50;99.90;;;;;;20747254;28;20383;-55
2023/04/11 16:42:43;;;;;;;19.40;14.05;;;10.20;99.90;;;;;;20744658;28;20052;-55
2023/04/11 16:52:45;;;;;;;18.50;14.63;;;9.90;99.90;;;;;;20745343;28;20052;-57
2023/04/11 17:02:46;;;;;;;21.13;14.07;;;9.50;99.90;;;;;;20744320;28;20034;-62
2023/04/11 17:12:48;;;;;;;18.27;14.48;;;9.00;99.90;;;;;;20741891;28;20503;-61
2023/04/11 17:22:50;;;;;;;24.30;16.65;;;8.40;99.90;;;;;;20741568;28;20030;-61
2023/04/11 17:32:53;;;;;;;26.90;18.90;;;8.00;99.90;;;;;;20742882;28;20030;-55
2023/04/11 17:42:56;;;;;;;24.38;17.88;;;7.30;99.90;;;;;;20740951;28;20064;-62
2023/04/11 17:52:58;;;;;;;27.42;18.08;;;6.60;99.90;;;;;;20740316;28;20085;-61
2023/04/11 18:03:01;;;;;;;32.03;19.85;;;6.10;99.90;;;;;;20740004;28;20034;-54
2023/04/11 18:13:03;;;;;;;35.75;21.90;;;5.70;99.90;;;;;;20738680;28;20033;-54
2023/04/11 18:23:05;;;;;;;35.50;22.27;;;5.30;99.90;;;;;;20738912;28;20069;-59
2023/04/11 18:33:08;;;;;;;32.42;22.20;;;5.20;99.90;;;;;;20737935;28;20041;-59
2023/04/11 18:43:10;;;;;;;29.27;20.60;;;5.20;99.90;;;;;;20735668;28;20022;-49
2023/04/11 18:53:11;;;;;;;32.50;22.25;;;5.10;99.90;;;;;;20736973;28;20049;-49
2023/04/11 19:03:16;;;;;;;38.90;23.40;;;5.00;99.90;;;;;;20734666;28;20471;-50
2023/04/11 19:13:18;;;;;;;36.42;22.48;;;4.90;99.90;;;;;;20736779;28;20042;-50
2023/04/11 19:23:20;;;;;;;37.17;23.08;;;4.80;99.90;;;;;;20736315;28;20030;-51
2023/04/11 19:33:24;;;;;;;37.15;23.83;;;4.50;99.90;;;;;;20747431;28;20030;-59
2023/04/11 19:43:26;;;;;;;41.47;24.88;;;4.40;99.90;;;;;;20748408;28;20026;-52
2023/04/11 19:53:28;;;;;;;41.53;25.95;;;4.30;99.90;;;;;;20749069;28;20042;-60
2023/04/11 20:03:30;;;;;;;42.58;26.05;;;4.20;99.90;;;;;;20748459;28;20096;-52
2023/04/11 20:13:32;;;;;;;43.05;26.27;;;4.20;99.90;;;;;;20747318;28;20042;-52
2023/04/11 20:23:35;;;;;;;41.80;25.55;;;4.20;99.90;;;;;;20746291;28;20041;-51
2023/04/11 20:33:37;;;;;;;46.33;26.90;;;4.20;99.90;;;;;;20745617;28;20037;-49
2023/04/11 20:43:41;;;;;;;44.53;27.48;;;4.10;99.90;;;;;;20744921;28;20034;-60
2023/04/11 20:53:42;;;;;;;46.97;28.70;;;4.00;99.90;;;;;;20744458;28;20091;-49
2023/04/11 21:03:45;;;;;;;55.65;31.33;;;3.90;99.90;;;;;;20742209;28;20387;-60
2023/04/11 21:13:50;;;;;;;50.50;31.50;;;4.00;99.90;;;;;;20742464;28;20463;-56
2023/04/11 21:23:52;;;;;;;48.53;29.70;;;4.10;99.90;;;;;;20741302;28;20415;-60
2023/04/11 21:33:54;;;;;;;47.35;30.50;;;4.30;99.90;;;;;;20741874;28;20056;-61
2023/04/11 21:43:56;;;;;;;41.85;28.15;;;4.80;99.90;;;;;;20740894;28;20083;-50
2023/04/11 21:53:57;;;;;;;42.38;27.58;;;5.40;99.90;;;;;;20739244;28;20029;-52
2023/04/11 22:04:00;;;;;;;41.03;27.77;;;5.80;99.90;;;;;;20739951;28;20107;-49
2023/04/11 22:14:02;;;;;;;42.90;26.98;;;6.00;99.90;;;;;;20739173;28;20037;-49
2023/04/11 22:24:08;;;;;;;35.97;24.45;;;6.20;99.90;;;;;;20740249;28;20037;-50
2023/04/11 22:34:09;;;;;;;39.85;25.55;;;5.90;99.90;;;;;;20737501;28;20033;-53
2023/04/11 22:44:11;;;;;;;44.63;26.95;;;5.20;99.90;;;;;;20738647;28;20443;-52
2023/04/11 22:54:14;;;;;;;47.83;28.95;;;4.40;99.90;;;;;;20737685;28;20084;-52
2023/04/11 23:04:16;;;;;;;47.28;27.95;;;4.20;99.90;;;;;;20749009;28;20038;-61
2023/04/11 23:14:19;;;;;;;50.67;30.15;;;3.90;99.90;;;;;;20752679;28;20041;-60
2023/04/11 23:24:21;;;;;;;52.63;32.33;;;3.90;99.90;;;;;;20751959;28;20053;-60
2023/04/11 23:34:22;;;;;;;59.88;34.40;;;4.10;99.90;;;;;;20751408;28;20037;-61
2023/04/11 23:44:24;;;;;;;61.33;33.67;;;4.00;99.90;;;;;;20749251;28;20034;-51
2023/04/11 23:54:30;;;;;;;59.28;34.42;;;3.90;99.90;;;;;;20749656;28;20038;-50
